createdAt,value
2023-02-28T00:00:54.587Z,94090.75
2023-02-28T00:03:21.468Z,94080.84
2023-02-28T00:05:48.177Z,94083.53
2023-02-28T00:08:33.862Z,94087.84
2023-02-28T00:11:09.346Z,94083.53
2023-02-28T00:13:38.625Z,94091.88
2023-02-28T00:16:08.054Z,94101.13
2023-02-28T00:18:34.780Z,94091.59
2023-02-28T00:21:01.710Z,94087.19
2023-02-28T00:23:29.173Z,94107.41
2023-02-28T00:25:56.107Z,94100.63
2023-02-28T00:28:23.464Z,94086.13
2023-02-28T00:30:50.339Z,94089.41
2023-02-28T00:33:17.213Z,94096.13
2023-02-28T00:35:47.319Z,94099.38
2023-02-28T00:38:15.149Z,94093.16
2023-02-28T00:40:41.859Z,94083.53
2023-02-28T00:43:08.646Z,94093.88
2023-02-28T00:45:35.518Z,94084.78
2023-02-28T00:48:02.316Z,94078.31
2023-02-28T00:50:29.458Z,94078.84
2023-02-28T00:52:57.580Z,94085.16
2023-02-28T00:55:24.381Z,94084.22
2023-02-28T00:57:51.134Z,94092.31
2023-02-28T01:00:18.407Z,94083.84
2023-02-28T01:02:45.153Z,94087.06
2023-02-28T01:05:11.982Z,94091.66
2023-02-28T01:07:39.500Z,94087.22
2023-02-28T01:10:06.574Z,94083.06
2023-02-28T01:12:33.544Z,94087.75
2023-02-28T01:15:00.473Z,94094.78
2023-02-28T01:17:27.454Z,94079.19
2023-02-28T01:19:56.521Z,94085.09
2023-02-28T01:22:25.696Z,94085.59
2023-02-28T01:24:52.441Z,94078.00
2023-02-28T01:27:19.149Z,94079.09
2023-02-28T01:29:46.123Z,94079.59
2023-02-28T01:32:12.944Z,94077.03
2023-02-28T01:34:39.808Z,94079.09
2023-02-28T01:37:06.732Z,94081.81
2023-02-28T01:39:33.479Z,94077.72
2023-02-28T01:42:00.180Z,94085.50
2023-02-28T01:44:58.788Z,94083.81
2023-02-28T01:47:28.723Z,94088.13
2023-02-28T01:49:57.893Z,94092.63
2023-02-28T01:52:26.049Z,94091.09
2023-02-28T01:54:56.541Z,94093.53
2023-02-28T01:57:26.599Z,94088.97
2023-02-28T02:00:08.586Z,94092.50
2023-02-28T02:02:40.048Z,94086.22
2023-02-28T02:05:09.800Z,94091.09
2023-02-28T02:07:39.012Z,94094.19
2023-02-28T02:10:26.845Z,94095.31
2023-02-28T02:13:05.239Z,94080.41
2023-02-28T02:15:37.760Z,94084.56
2023-02-28T02:18:15.647Z,94086.88
2023-02-28T02:20:55.127Z,94080.84
2023-02-28T02:23:44.990Z,94081.56
2023-02-28T02:26:24.159Z,94075.31
2023-02-28T02:29:48.102Z,94074.34
2023-02-28T02:32:39.399Z,94070.94
2023-02-28T02:35:10.058Z,94068.97
2023-02-28T02:37:42.000Z,94082.41
2023-02-28T02:40:20.819Z,94085.19
2023-02-28T02:42:58.088Z,94085.94
2023-02-28T02:45:39.455Z,94089.47
2023-02-28T02:48:09.547Z,94089.78
2023-02-28T02:50:40.301Z,94087.66
2023-02-28T02:53:08.450Z,94082.53
2023-02-28T02:55:36.007Z,94092.88
2023-02-28T02:58:05.523Z,94097.88
2023-02-28T03:00:36.420Z,94097.28
2023-02-28T03:03:03.934Z,94106.34
2023-02-28T03:05:40.646Z,94104.19
2023-02-28T03:08:07.534Z,94110.09
2023-02-28T03:10:43.531Z,94115.38
2023-02-28T03:13:19.259Z,94130.69
2023-02-28T03:16:02.661Z,94126.00
2023-02-28T03:18:44.635Z,94125.88
2023-02-28T03:21:29.211Z,94124.94
2023-02-28T03:24:11.161Z,94127.31
2023-02-28T03:26:43.904Z,94133.38
2023-02-28T03:29:35.230Z,94137.78
2023-02-28T03:32:15.638Z,94146.84
2023-02-28T03:34:47.976Z,94138.91
2023-02-28T03:37:21.763Z,94145.50
2023-02-28T03:39:51.667Z,94141.09
2023-02-28T03:42:45.813Z,94138.06
2023-02-28T03:45:22.164Z,94144.28
2023-02-28T03:48:21.429Z,94140.69
2023-02-28T03:50:50.322Z,94143.78
2023-02-28T03:53:33.847Z,94150.16
2023-02-28T03:56:06.323Z,94144.91
2023-02-28T03:58:57.557Z,94150.97
2023-02-28T04:01:36.666Z,94142.50
2023-02-28T04:04:04.129Z,94150.38
2023-02-28T04:06:33.698Z,94143.91
2023-02-28T04:09:01.110Z,94152.88
2023-02-28T04:11:38.352Z,94150.75
2023-02-28T04:14:06.506Z,94144.53
2023-02-28T04:16:35.924Z,94151.50
2023-02-28T04:19:05.966Z,94149.69
2023-02-28T04:21:37.652Z,94145.97
2023-02-28T04:24:05.044Z,94143.97
2023-02-28T04:26:32.822Z,94139.06
2023-02-28T04:29:00.248Z,94135.44
2023-02-28T04:31:27.403Z,94137.75
2023-02-28T04:33:54.407Z,94143.53
2023-02-28T04:36:21.488Z,94147.97
2023-02-28T04:38:48.216Z,94149.31
2023-02-28T04:41:14.966Z,94152.44
2023-02-28T04:43:41.798Z,94158.69
2023-02-28T04:46:09.363Z,94158.31
2023-02-28T04:48:37.870Z,94160.16
2023-02-28T04:51:05.856Z,94166.38
2023-02-28T04:53:32.715Z,94173.09
2023-02-28T04:55:59.800Z,94167.75
2023-02-28T04:58:26.665Z,94174.84
2023-02-28T05:00:53.985Z,94175.91
2023-02-28T05:03:21.855Z,94177.44
2023-02-28T05:05:48.781Z,94177.13
2023-02-28T05:08:15.785Z,94175.97
2023-02-28T05:10:42.549Z,94177.63
2023-02-28T05:13:14.421Z,94177.53
2023-02-28T05:15:41.130Z,94181.81
2023-02-28T05:18:09.438Z,94178.91
2023-02-28T05:20:36.222Z,94183.63
2023-02-28T05:23:04.080Z,94186.63
2023-02-28T05:25:30.794Z,94188.25
2023-02-28T05:27:57.538Z,94189.31
2023-02-28T05:30:24.311Z,94193.03
2023-02-28T05:32:52.095Z,94191.44
2023-02-28T05:35:19.390Z,94195.47
2023-02-28T05:37:46.157Z,94197.91
2023-02-28T05:40:13.356Z,94202.91
2023-02-28T05:42:40.189Z,94206.22
2023-02-28T05:45:08.064Z,94212.16
2023-02-28T05:47:35.474Z,94213.06
2023-02-28T05:50:02.639Z,94212.16
2023-02-28T05:52:31.121Z,94214.97
2023-02-28T05:54:58.018Z,94209.38
2023-02-28T05:57:25.057Z,94214.25
2023-02-28T05:59:52.277Z,94214.22
2023-02-28T06:02:19.125Z,94209.09
2023-02-28T06:04:46.112Z,94211.47
2023-02-28T06:07:13.196Z,94211.81
2023-02-28T06:09:41.201Z,94216.66
2023-02-28T06:12:08.295Z,94210.69
2023-02-28T06:14:35.548Z,94208.44
2023-02-28T06:17:02.885Z,94213.13
2023-02-28T06:19:31.097Z,94219.97
2023-02-28T06:21:58.156Z,94213.19
2023-02-28T06:24:26.291Z,94210.94
2023-02-28T06:26:53.046Z,94209.06
2023-02-28T06:29:19.919Z,94215.19
2023-02-28T06:31:47.400Z,94223.41
2023-02-28T06:34:14.847Z,94220.34
2023-02-28T06:36:42.694Z,94213.97
2023-02-28T06:39:10.047Z,94225.28
2023-02-28T06:41:54.037Z,94225.13
2023-02-28T06:44:22.061Z,94236.53
2023-02-28T06:46:48.810Z,94228.81
2023-02-28T06:49:16.032Z,94232.47
2023-02-28T06:51:47.612Z,94240.75
2023-02-28T06:54:14.753Z,94236.75
2023-02-28T06:56:41.489Z,94247.28
2023-02-28T06:59:08.302Z,94249.31
2023-02-28T07:01:35.306Z,94245.41
2023-02-28T07:04:02.666Z,94243.44
2023-02-28T07:06:29.730Z,94243.03
2023-02-28T07:08:56.720Z,94239.00
2023-02-28T07:11:29.514Z,94238.38
2023-02-28T07:13:56.885Z,94242.00
2023-02-28T07:16:25.136Z,94238.81
2023-02-28T07:18:54.136Z,94238.97
2023-02-28T07:21:21.131Z,94235.47
2023-02-28T07:23:48.180Z,94237.50
2023-02-28T07:26:17.958Z,94241.84
2023-02-28T07:28:46.739Z,94246.56
2023-02-28T07:31:18.117Z,94245.09
2023-02-28T07:33:45.248Z,94236.63
2023-02-28T07:36:16.282Z,94235.25
2023-02-28T07:38:48.142Z,94239.19
2023-02-28T07:41:16.916Z,94240.78
2023-02-28T07:43:43.880Z,94240.94
2023-02-28T07:46:12.747Z,94241.47
2023-02-28T07:48:39.578Z,94242.41
2023-02-28T07:51:06.525Z,94242.56
2023-02-28T07:53:33.439Z,94239.03
2023-02-28T07:56:01.937Z,94229.72
2023-02-28T07:58:30.056Z,94228.09
2023-02-28T08:00:57.036Z,94225.94
2023-02-28T08:03:25.131Z,94228.19
2023-02-28T08:05:53.592Z,94234.13
2023-02-28T08:08:20.323Z,94234.38
2023-02-28T08:10:47.111Z,94239.75
2023-02-28T08:13:13.815Z,94234.34
2023-02-28T08:15:42.970Z,94235.00
2023-02-28T08:18:09.979Z,94226.22
2023-02-28T08:20:36.763Z,94228.38
2023-02-28T08:23:03.519Z,94232.28
2023-02-28T08:25:30.309Z,94235.25
2023-02-28T08:27:57.056Z,94241.63
2023-02-28T08:30:23.961Z,94230.03
2023-02-28T08:32:50.809Z,94241.09
2023-02-28T08:35:17.587Z,94242.47
2023-02-28T08:37:44.387Z,94245.69
2023-02-28T08:40:12.008Z,94245.16
2023-02-28T08:42:38.742Z,94243.41
2023-02-28T08:45:06.178Z,94249.09
2023-02-28T08:47:33.078Z,94247.47
2023-02-28T08:49:59.768Z,94251.53
2023-02-28T08:52:26.519Z,94242.50
2023-02-28T08:54:53.283Z,94249.25
2023-02-28T08:57:20.023Z,94247.47
2023-02-28T08:59:46.799Z,94255.34
2023-02-28T09:02:15.315Z,94249.38
2023-02-28T09:04:42.522Z,94254.06
2023-02-28T09:07:09.274Z,94249.06
2023-02-28T09:09:36.091Z,94245.56
2023-02-28T09:12:03.201Z,94249.09
2023-02-28T09:14:30.046Z,94248.81
2023-02-28T09:16:56.805Z,94245.25
2023-02-28T09:19:23.735Z,94250.22
2023-02-28T09:21:50.940Z,94237.22
2023-02-28T09:24:17.947Z,94245.00
2023-02-28T09:26:56.304Z,94249.03
2023-02-28T09:29:30.350Z,94241.44
2023-02-28T09:31:59.777Z,94243.81
2023-02-28T09:34:27.751Z,94247.94
2023-02-28T09:36:55.826Z,94245.75
2023-02-28T09:39:23.992Z,94244.13
2023-02-28T09:41:55.434Z,94239.06
2023-02-28T09:44:30.391Z,94236.34
2023-02-28T09:47:01.731Z,94234.28
2023-02-28T09:49:39.497Z,94227.06
2023-02-28T09:52:11.046Z,94223.94
2023-02-28T09:54:38.153Z,94226.38
2023-02-28T09:57:26.122Z,94229.13
2023-02-28T10:00:11.430Z,94236.50
2023-02-28T10:02:54.096Z,94225.31
2023-02-28T10:05:44.390Z,94218.69
2023-02-28T10:08:35.202Z,94225.28
2023-02-28T10:11:05.440Z,94214.88
2023-02-28T10:13:56.750Z,94216.75
2023-02-28T10:16:28.225Z,94216.28
2023-02-28T10:19:25.310Z,94220.28
2023-02-28T10:22:01.293Z,94216.09
2023-02-28T10:24:39.894Z,94203.25
2023-02-28T10:27:19.826Z,94203.94
2023-02-28T10:29:48.750Z,94195.47
2023-02-28T10:32:18.605Z,94196.84
2023-02-28T10:34:46.073Z,94197.94
2023-02-28T10:37:14.278Z,94190.91
2023-02-28T10:39:40.975Z,94187.84
2023-02-28T10:42:20.152Z,94178.34
2023-02-28T10:44:47.134Z,94174.97
2023-02-28T10:47:18.918Z,94167.56
2023-02-28T10:49:50.396Z,94161.75
2023-02-28T10:52:34.995Z,94154.59
2023-02-28T10:55:23.253Z,94158.88
2023-02-28T10:57:50.855Z,94156.41
2023-02-28T11:00:24.013Z,94146.28
2023-02-28T11:02:51.069Z,94147.13
2023-02-28T11:05:36.197Z,94148.38
2023-02-28T11:08:17.206Z,94134.84
2023-02-28T11:10:48.889Z,94136.13
2023-02-28T11:13:21.324Z,94133.06
2023-02-28T11:15:59.151Z,94136.13
2023-02-28T11:18:31.319Z,94132.47
2023-02-28T11:21:02.341Z,94133.50
2023-02-28T11:23:32.938Z,94129.78
2023-02-28T11:26:01.963Z,94124.47
2023-02-28T11:28:32.355Z,94130.53
2023-02-28T11:31:20.487Z,94125.38
2023-02-28T11:33:53.014Z,94127.72
2023-02-28T11:36:27.199Z,94123.88
2023-02-28T11:38:57.052Z,94120.34
2023-02-28T11:41:54.374Z,94126.16
2023-02-28T11:44:59.698Z,94128.03
2023-02-28T11:47:48.655Z,94125.03
2023-02-28T11:50:45.386Z,94119.69
2023-02-28T11:53:31.445Z,94116.91
2023-02-28T11:56:06.374Z,94115.91
2023-02-28T11:58:52.799Z,94122.97
2023-02-28T12:01:37.905Z,94108.94
2023-02-28T12:04:18.404Z,94115.72
2023-02-28T12:06:57.694Z,94109.47
2023-02-28T12:09:54.821Z,94111.03
2023-02-28T12:12:50.923Z,94110.06
2023-02-28T12:15:40.897Z,94106.13
2023-02-28T12:18:29.366Z,94103.75
2023-02-28T12:21:15.473Z,94098.56
2023-02-28T12:23:54.157Z,94104.72
2023-02-28T12:26:47.719Z,94103.44
2023-02-28T12:29:21.268Z,94105.22
2023-02-28T12:31:53.302Z,94104.13
2023-02-28T12:34:38.529Z,94108.59
2023-02-28T12:37:10.317Z,94109.34
2023-02-28T12:39:49.741Z,94103.84
2023-02-28T12:42:37.353Z,94103.63
2023-02-28T12:45:11.978Z,94106.88
2023-02-28T12:47:39.480Z,94108.19
2023-02-28T12:50:12.508Z,94110.19
2023-02-28T12:52:51.672Z,94109.59
2023-02-28T12:55:39.988Z,94094.16
2023-02-28T12:58:34.286Z,94101.53
2023-02-28T13:01:16.262Z,94100.59
2023-02-28T13:03:53.979Z,94102.38
2023-02-28T13:06:53.472Z,94101.72
2023-02-28T13:09:20.558Z,94113.38
2023-02-28T13:11:49.522Z,94104.94
2023-02-28T13:14:25.909Z,94108.88
2023-02-28T13:17:07.847Z,94097.59
2023-02-28T13:19:36.480Z,94104.75
2023-02-28T13:22:03.781Z,94094.91
2023-02-28T13:24:43.512Z,94107.00
2023-02-28T13:27:10.772Z,94099.75
2023-02-28T13:29:43.468Z,94101.53
2023-02-28T13:32:10.283Z,94101.06
2023-02-28T13:35:01.439Z,94099.19
2023-02-28T13:37:30.600Z,94096.78
2023-02-28T13:40:11.695Z,94092.59
2023-02-28T13:42:50.610Z,94090.16
2023-02-28T13:45:28.953Z,94094.66
2023-02-28T13:47:59.799Z,94090.97
2023-02-28T13:50:29.545Z,94084.03
2023-02-28T13:53:08.398Z,94086.16
2023-02-28T13:55:50.382Z,94074.88
2023-02-28T13:58:32.392Z,94079.56
2023-02-28T14:01:06.159Z,94084.88
2023-02-28T14:03:39.045Z,94084.06
2023-02-28T14:06:31.581Z,94093.53
2023-02-28T14:08:58.646Z,94090.59
2023-02-28T14:11:37.409Z,94097.78
2023-02-28T14:14:05.688Z,94095.81
2023-02-28T14:16:42.877Z,94096.06
2023-02-28T14:19:16.900Z,94087.78
2023-02-28T14:22:37.417Z,94087.50
2023-02-28T14:25:12.019Z,94093.28
2023-02-28T14:28:14.743Z,94091.50
2023-02-28T14:31:01.369Z,94094.88
2023-02-28T14:33:31.154Z,94092.88
2023-02-28T14:36:09.505Z,94086.25
2023-02-28T14:38:43.892Z,94088.38
2023-02-28T14:41:18.110Z,94091.06
2023-02-28T14:44:01.939Z,94091.41
2023-02-28T14:46:39.025Z,94084.94
2023-02-28T14:49:08.289Z,94082.69
2023-02-28T14:51:35.103Z,94084.94
2023-02-28T14:54:03.130Z,94084.13
2023-02-28T14:56:50.718Z,94081.63
2023-02-28T14:59:30.450Z,94084.13
2023-02-28T15:02:17.439Z,94086.63
2023-02-28T15:04:44.245Z,94085.81
2023-02-28T15:07:13.985Z,94076.47
2023-02-28T15:09:40.743Z,94079.88
2023-02-28T15:12:07.889Z,94076.25
2023-02-28T15:14:37.374Z,94084.16
2023-02-28T15:17:08.937Z,94080.94
2023-02-28T15:19:37.719Z,94084.25
2023-02-28T15:22:07.932Z,94085.53
2023-02-28T15:24:46.469Z,94086.34
2023-02-28T15:27:16.640Z,94085.91
2023-02-28T15:29:48.528Z,94089.25
2023-02-28T15:32:44.824Z,94096.91
2023-02-28T15:35:25.854Z,94090.16
2023-02-28T15:38:12.055Z,94087.13
2023-02-28T15:40:44.703Z,94082.59
2023-02-28T15:43:19.954Z,94081.72
2023-02-28T15:46:00.001Z,94081.28
2023-02-28T15:48:32.330Z,94088.44
2023-02-28T15:51:09.468Z,94090.75
2023-02-28T15:53:46.057Z,94092.28
2023-02-28T15:56:24.908Z,94101.00
2023-02-28T15:59:04.576Z,94099.53
2023-02-28T16:01:34.639Z,94100.84
2023-02-28T16:04:04.475Z,94097.25
2023-02-28T16:06:35.634Z,94106.91
2023-02-28T16:09:03.635Z,94104.31
2023-02-28T16:11:31.885Z,94108.69
2023-02-28T16:13:59.182Z,94112.53
2023-02-28T16:16:27.208Z,94120.78
2023-02-28T16:18:54.421Z,94120.09
2023-02-28T16:21:21.278Z,94132.53
2023-02-28T16:23:48.037Z,94134.72
2023-02-28T16:26:24.293Z,94147.56
2023-02-28T16:28:52.155Z,94151.59
2023-02-28T16:31:19.060Z,94158.91
2023-02-28T16:33:46.250Z,94165.94
2023-02-28T16:36:21.969Z,94163.25
2023-02-28T16:38:48.782Z,94170.78
2023-02-28T16:41:23.734Z,94177.94
2023-02-28T16:43:53.034Z,94182.53
2023-02-28T16:46:20.786Z,94187.38
2023-02-28T16:48:52.340Z,94182.41
2023-02-28T16:51:19.533Z,94188.97
2023-02-28T16:53:46.834Z,94190.19
2023-02-28T16:56:20.139Z,94190.03
2023-02-28T16:58:47.836Z,94189.25
2023-02-28T17:01:14.778Z,94191.81
2023-02-28T17:03:41.658Z,94193.41
2023-02-28T17:06:24.216Z,94198.00
2023-02-28T17:08:51.941Z,94195.03
2023-02-28T17:11:19.507Z,94193.81
2023-02-28T17:13:46.816Z,94195.03
2023-02-28T17:16:21.361Z,94202.44
2023-02-28T17:18:48.562Z,94203.94
2023-02-28T17:21:16.868Z,94205.13
2023-02-28T17:23:44.080Z,94194.72
2023-02-28T17:26:14.659Z,94192.44
2023-02-28T17:28:41.709Z,94190.69
2023-02-28T17:31:09.087Z,94195.13
2023-02-28T17:33:35.965Z,94185.53
2023-02-28T17:36:02.930Z,94185.53
2023-02-28T17:38:29.927Z,94183.91
2023-02-28T17:40:58.315Z,94176.75
2023-02-28T17:43:26.797Z,94178.78
2023-02-28T17:45:54.165Z,94176.22
2023-02-28T17:48:21.036Z,94184.59
2023-02-28T17:50:47.828Z,94181.84
2023-02-28T17:53:14.529Z,94176.06
2023-02-28T17:55:41.429Z,94174.03
2023-02-28T17:58:10.729Z,94175.34
2023-02-28T18:00:37.609Z,94172.25
2023-02-28T18:03:04.428Z,94176.94
2023-02-28T18:05:32.233Z,94170.59
2023-02-28T18:07:59.558Z,94175.56
2023-02-28T18:10:28.372Z,94170.28
2023-02-28T18:12:55.534Z,94166.25
2023-02-28T18:15:23.352Z,94174.97
2023-02-28T18:17:50.702Z,94161.78
2023-02-28T18:20:18.068Z,94166.22
2023-02-28T18:22:45.231Z,94166.84
2023-02-28T18:25:14.784Z,94167.91
2023-02-28T18:27:53.966Z,94177.00
2023-02-28T18:30:21.970Z,94168.81
2023-02-28T18:32:48.819Z,94177.16
2023-02-28T18:35:15.573Z,94177.41
2023-02-28T18:37:42.399Z,94171.66
2023-02-28T18:40:10.267Z,94183.53
2023-02-28T18:42:39.195Z,94182.44
2023-02-28T18:45:06.702Z,94188.91
2023-02-28T18:47:34.945Z,94184.72
2023-02-28T18:50:02.069Z,94187.56
2023-02-28T18:52:28.971Z,94192.53
2023-02-28T18:54:55.634Z,94191.75
2023-02-28T18:57:22.436Z,94194.28
2023-02-28T18:59:49.212Z,94193.75
2023-02-28T19:02:16.252Z,94187.63
2023-02-28T19:04:42.972Z,94189.78
2023-02-28T19:07:09.784Z,94192.19
2023-02-28T19:09:36.673Z,94194.03
2023-02-28T19:12:03.471Z,94190.00
2023-02-28T19:14:30.274Z,94195.22
2023-02-28T19:16:57.311Z,94195.38
2023-02-28T19:19:24.046Z,94190.00
2023-02-28T19:21:50.874Z,94190.44
2023-02-28T19:24:18.912Z,94192.19
2023-02-28T19:26:47.032Z,94198.47
2023-02-28T19:29:13.789Z,94197.34
2023-02-28T19:31:40.681Z,94197.34
2023-02-28T19:34:07.956Z,94203.75
2023-02-28T19:36:34.716Z,94196.78
2023-02-28T19:39:01.505Z,94198.16
2023-02-28T19:41:28.506Z,94199.63
2023-02-28T19:43:55.468Z,94197.06
2023-02-28T19:46:22.292Z,94197.06
2023-02-28T19:48:49.216Z,94192.31
2023-02-28T19:53:47.827Z,94189.78
2023-02-28T19:56:14.644Z,94189.63
2023-02-28T19:58:41.423Z,94184.78
2023-02-28T20:01:10.111Z,94191.19
2023-02-28T20:03:36.892Z,94190.25
2023-02-28T20:06:10.006Z,94188.75
2023-02-28T20:11:21.916Z,94202.47
2023-02-28T20:13:48.624Z,94192.94
2023-02-28T20:16:16.092Z,94202.22
2023-02-28T20:18:44.686Z,94194.66
2023-02-28T20:21:12.876Z,94199.47
2023-02-28T20:23:40.717Z,94193.22
2023-02-28T20:26:08.235Z,94203.06
2023-02-28T20:28:35.037Z,94193.56
2023-02-28T20:31:02.160Z,94191.56
2023-02-28T20:33:29.326Z,94190.03
2023-02-28T20:36:02.443Z,94191.94
2023-02-28T20:38:29.969Z,94194.47
2023-02-28T20:41:00.527Z,94193.31
2023-02-28T20:43:30.415Z,94187.50
2023-02-28T20:45:58.859Z,94190.03
2023-02-28T20:48:25.896Z,94186.72
2023-02-28T20:50:54.159Z,94188.44
2023-02-28T20:53:21.770Z,94187.25
2023-02-28T20:55:59.484Z,94193.03
2023-02-28T20:58:29.397Z,94184.34
2023-02-28T21:01:16.360Z,94183.78
2023-02-28T21:03:49.660Z,94191.56
2023-02-28T21:06:17.883Z,94191.44
2023-02-28T21:08:44.826Z,94194.00
2023-02-28T21:11:23.820Z,94196.41
2023-02-28T21:13:54.431Z,94186.34
2023-02-28T21:16:23.939Z,94189.38
2023-02-28T21:18:50.728Z,94191.81
2023-02-28T21:21:19.525Z,94191.69
2023-02-28T21:23:49.392Z,94194.13
2023-02-28T21:26:22.435Z,94200.03
2023-02-28T21:28:54.808Z,94190.03
2023-02-28T21:31:23.387Z,94190.03
2023-02-28T21:33:50.327Z,94186.81
2023-02-28T21:36:20.129Z,94184.81
2023-02-28T21:38:48.278Z,94183.34
2023-02-28T21:41:20.772Z,94184.81
2023-02-28T21:43:48.664Z,94184.28
2023-02-28T21:46:17.893Z,94184.38
2023-02-28T21:48:44.864Z,94181.84
2023-02-28T21:51:14.115Z,94181.59
2023-02-28T21:53:41.605Z,94173.81
2023-02-28T21:56:37.861Z,94186.13
2023-02-28T21:59:05.031Z,94190.69
2023-02-28T22:01:37.133Z,94198.34
2023-02-28T22:04:06.816Z,94189.19
2023-02-28T22:06:39.639Z,94194.59
2023-02-28T22:09:08.652Z,94194.16
2023-02-28T22:11:36.224Z,94191.88
2023-02-28T22:14:03.201Z,94194.91
2023-02-28T22:16:40.837Z,94197.56
2023-02-28T22:19:15.120Z,94193.16
2023-02-28T22:21:42.089Z,94195.81
2023-02-28T22:24:10.417Z,94195.72
2023-02-28T22:26:37.683Z,94197.34
2023-02-28T22:29:04.727Z,94184.94
2023-02-28T22:31:33.437Z,94182.25
2023-02-28T22:34:01.291Z,94194.09
2023-02-28T22:36:28.871Z,94191.09
2023-02-28T22:38:57.639Z,94190.53
2023-02-28T22:41:24.671Z,94192.06
2023-02-28T22:43:54.243Z,94196.94
2023-02-28T22:46:22.510Z,94193.09
2023-02-28T22:48:50.055Z,94196.34
2023-02-28T22:51:19.571Z,94188.53
2023-02-28T22:53:48.671Z,94185.78
2023-02-28T22:56:17.177Z,94178.13
2023-02-28T22:58:45.654Z,94178.81
2023-02-28T23:01:15.078Z,94178.81
2023-02-28T23:03:42.697Z,94180.56
2023-02-28T23:06:20.037Z,94171.41
2023-02-28T23:08:47.554Z,94169.66
2023-02-28T23:11:20.112Z,94169.66
2023-02-28T23:13:58.448Z,94162.84
2023-02-28T23:16:30.041Z,94165.66
2023-02-28T23:18:57.863Z,94163.66
2023-02-28T23:21:25.023Z,94160.88
2023-02-28T23:23:51.796Z,94168.41
2023-02-28T23:26:19.143Z,94162.38
2023-02-28T23:28:45.947Z,94152.97
2023-02-28T23:31:13.568Z,94144.03
2023-02-28T23:33:40.409Z,94138.84
2023-02-28T23:36:09.918Z,94137.81
2023-02-28T23:38:37.202Z,94131.09
2023-02-28T23:41:10.078Z,94129.47
2023-02-28T23:43:37.118Z,94129.47
2023-02-28T23:46:04.813Z,94123.66
2023-02-28T23:48:31.840Z,94118.00
2023-02-28T23:51:08.331Z,94122.66
2023-02-28T23:53:39.721Z,94123.72
2023-02-28T23:56:08.281Z,94110.88
2023-02-28T23:58:35.110Z,94116.78
